createdAt,value
2018-09-24T00:01:50.432Z,11.00
2018-09-24T00:06:53.991Z,10.90
2018-09-24T00:11:57.638Z,10.60
2018-09-24T00:17:01.199Z,10.40
2018-09-24T00:22:04.821Z,10.40
2018-09-24T00:27:08.515Z,10.40
2018-09-24T00:32:12.196Z,10.30
2018-09-24T00:37:15.919Z,10.20
2018-09-24T00:42:19.597Z,9.90
2018-09-24T00:47:23.327Z,10.00
2018-09-24T00:52:26.910Z,10.10
2018-09-24T00:57:30.696Z,10.20
2018-09-24T01:02:34.393Z,10.10
2018-09-24T01:07:38.094Z,10.10
2018-09-24T01:12:41.645Z,9.70
2018-09-24T01:17:45.244Z,9.90
2018-09-24T01:22:48.842Z,9.70
2018-09-24T01:27:52.478Z,10.00
2018-09-24T01:32:56.040Z,9.80
2018-09-24T01:37:59.838Z,9.80
2018-09-24T01:43:03.382Z,9.90
2018-09-24T01:48:07.067Z,9.80
2018-09-24T01:53:10.714Z,9.50
2018-09-24T01:58:14.326Z,9.30
2018-09-24T02:03:18.021Z,9.40
2018-09-24T02:08:21.861Z,9.30
2018-09-24T02:13:25.678Z,9.50
2018-09-24T02:18:29.307Z,9.50
2018-09-24T02:23:32.890Z,9.50
2018-09-24T02:28:36.517Z,9.60
2018-09-24T02:33:40.469Z,9.50
2018-09-24T02:38:45.191Z,9.70
2018-09-24T02:43:48.759Z,9.70
2018-09-24T02:48:52.305Z,9.90
2018-09-24T02:53:55.949Z,10.00
2018-09-24T02:59:01.649Z,10.00
2018-09-24T03:04:05.220Z,9.90
2018-09-24T03:09:14.494Z,9.50
2018-09-24T03:14:27.542Z,9.30
2018-09-24T03:19:31.200Z,9.40
2018-09-24T03:24:34.731Z,9.30
2018-09-24T03:29:38.274Z,9.60
2018-09-24T03:34:42.392Z,10.20
2018-09-24T03:39:52.145Z,10.10
2018-09-24T03:44:55.785Z,9.70
2018-09-24T03:49:59.310Z,9.50
2018-09-24T03:55:02.867Z,9.30
2018-09-24T04:00:06.628Z,9.40
2018-09-24T04:05:15.520Z,9.30
2018-09-24T04:10:24.416Z,9.60
2018-09-24T04:15:33.419Z,9.50
2018-09-24T04:20:42.215Z,9.50
2018-09-24T04:25:51.031Z,10.10
2018-09-24T04:30:59.934Z,9.80
2018-09-24T04:36:08.777Z,9.50
2018-09-24T04:41:18.706Z,9.30
2018-09-24T04:46:27.502Z,9.30
2018-09-24T04:51:36.426Z,9.30
2018-09-24T04:56:45.274Z,9.50
2018-09-24T05:01:54.380Z,9.50
2018-09-24T05:07:03.278Z,9.60
2018-09-24T05:12:12.089Z,9.20
2018-09-24T05:17:20.898Z,9.10
2018-09-24T05:22:29.670Z,9.10
2018-09-24T05:27:38.434Z,9.20
2018-09-24T05:32:47.396Z,9.30
2018-09-24T05:37:59.581Z,9.50
2018-09-24T05:43:10.162Z,9.60
2018-09-24T05:48:19.130Z,9.40
2018-09-24T05:53:28.080Z,9.50
2018-09-24T05:58:36.863Z,9.30
2018-09-24T06:03:45.754Z,9.40
2018-09-24T06:08:55.071Z,9.30
2018-09-24T06:14:04.131Z,9.80
2018-09-24T06:19:13.029Z,10.20
2018-09-24T06:24:21.731Z,10.10
2018-09-24T06:29:30.601Z,10.20
2018-09-24T06:34:39.581Z,10.10
2018-09-24T06:39:48.712Z,10.20
2018-09-24T06:44:57.979Z,9.90
2018-09-24T06:50:06.830Z,10.00
2018-09-24T06:55:15.783Z,9.70
2018-09-24T07:00:24.736Z,10.00
2018-09-24T07:05:35.948Z,10.00
2018-09-24T07:10:44.845Z,10.20
2018-09-24T07:15:53.654Z,10.60
2018-09-24T07:21:02.530Z,10.90
2018-09-24T07:26:11.422Z,11.00
2018-09-24T07:31:22.456Z,11.20
2018-09-24T07:36:31.470Z,11.70
2018-09-24T07:41:40.451Z,11.90
2018-09-24T07:46:49.650Z,11.70
2018-09-24T07:51:58.639Z,11.50
2018-09-24T07:57:07.438Z,12.00
2018-09-24T08:02:16.315Z,11.90
2018-09-24T08:07:25.169Z,12.10
2018-09-24T08:12:35.028Z,12.00
2018-09-24T08:17:43.819Z,13.10
2018-09-24T08:28:01.194Z,16.10
2018-09-24T08:33:10.171Z,16.60
2018-09-24T08:38:18.996Z,16.10
2018-09-24T08:43:31.525Z,17.50
2018-09-24T08:48:40.430Z,17.50
2018-09-24T08:53:49.446Z,17.50
2018-09-24T08:58:58.438Z,17.70
2018-09-24T09:04:09.335Z,17.60
2018-09-24T09:09:18.264Z,17.60
2018-09-24T09:14:27.289Z,17.80
2018-09-24T09:19:36.154Z,16.40
2018-09-24T09:24:45.091Z,17.80
2018-09-24T09:29:55.302Z,17.70
2018-09-24T09:35:04.131Z,18.80
2018-09-24T09:40:13.523Z,19.60
2018-09-24T09:45:25.783Z,16.80
2018-09-24T09:50:36.635Z,15.60
2018-09-24T09:55:45.586Z,15.10
2018-09-24T10:00:54.427Z,14.70
2018-09-24T10:06:03.289Z,15.70
2018-09-24T10:11:12.350Z,15.20
2018-09-24T10:16:21.138Z,16.80
2018-09-24T10:21:37.246Z,18.70
2018-09-24T10:26:46.106Z,17.10
2018-09-24T10:31:54.787Z,16.70
2018-09-24T10:37:03.795Z,16.80
2018-09-24T10:42:14.891Z,20.00
2018-09-24T10:47:23.873Z,19.70
2018-09-24T10:52:33.219Z,17.30
2018-09-24T10:57:42.289Z,18.60
2018-09-24T11:02:52.192Z,22.20
2018-09-24T11:08:01.114Z,19.80
2018-09-24T11:13:09.930Z,17.70
2018-09-24T11:18:18.946Z,17.30
2018-09-24T11:23:28.489Z,16.90
2018-09-24T11:28:37.438Z,16.70
2018-09-24T11:33:46.351Z,16.50
2018-09-24T11:38:55.292Z,16.60
2018-09-24T11:44:05.243Z,16.40
2018-09-24T11:49:13.976Z,16.40
2018-09-24T11:54:22.915Z,15.80
2018-09-24T11:59:31.831Z,15.80
2018-09-24T12:04:41.029Z,15.70
2018-09-24T12:09:50.022Z,15.80
2018-09-24T12:14:58.805Z,15.80
2018-09-24T12:20:08.235Z,15.90
2018-09-24T12:25:17.095Z,15.70
2018-09-24T12:30:25.839Z,15.80
2018-09-24T12:35:34.614Z,15.60
2018-09-24T12:40:43.473Z,15.30
2018-09-24T12:45:53.399Z,15.70
2018-09-24T12:51:02.395Z,15.60
2018-09-24T12:56:11.857Z,15.90
2018-09-24T13:01:20.963Z,16.00
2018-09-24T13:06:35.336Z,15.80
2018-09-24T13:11:44.370Z,15.90
2018-09-24T13:16:53.119Z,16.30
2018-09-24T13:22:01.838Z,16.30
2018-09-24T13:27:14.637Z,16.10
2018-09-24T13:32:23.440Z,15.70
2018-09-24T13:37:33.651Z,15.70
2018-09-24T13:42:42.480Z,15.50
2018-09-24T13:47:55.886Z,14.30
2018-09-24T13:53:04.900Z,14.60
2018-09-24T13:58:13.714Z,15.20
2018-09-24T14:03:22.690Z,15.40
2018-09-24T14:08:31.427Z,15.60
2018-09-24T14:13:40.183Z,15.80
2018-09-24T14:18:49.300Z,15.40
2018-09-24T14:23:58.216Z,15.20
2018-09-24T14:29:07.146Z,15.10
2018-09-24T14:34:20.355Z,15.30
2018-09-24T14:39:29.318Z,15.10
2018-09-24T14:44:39.225Z,15.40
2018-09-24T14:49:49.074Z,15.20
2018-09-24T14:54:58.034Z,14.90
2018-09-24T15:00:07.079Z,14.90
2018-09-24T15:05:16.044Z,15.40
2018-09-24T15:10:34.368Z,15.50
2018-09-24T15:15:44.214Z,14.60
2018-09-24T15:20:54.299Z,14.50
2018-09-24T15:26:03.294Z,14.30
2018-09-24T15:31:12.428Z,14.50
2018-09-24T15:36:21.521Z,14.90
2018-09-24T15:41:34.550Z,14.50
2018-09-24T15:46:43.416Z,14.40
2018-09-24T15:51:52.470Z,14.20
2018-09-24T15:57:06.822Z,14.20
2018-09-24T16:02:15.770Z,14.40
2018-09-24T16:07:24.426Z,14.20
2018-09-24T16:12:33.118Z,14.00
2018-09-24T16:17:41.969Z,14.20
2018-09-24T16:22:50.883Z,13.70
2018-09-24T16:27:59.682Z,14.00
2018-09-24T16:33:08.730Z,13.50
2018-09-24T16:38:17.702Z,13.20
2018-09-24T16:43:26.659Z,13.30
2018-09-24T16:48:35.582Z,12.80
2018-09-24T16:53:44.306Z,12.80
2018-09-24T16:58:58.291Z,13.00
2018-09-24T17:04:07.640Z,12.90
2018-09-24T17:09:16.657Z,12.60
2018-09-24T17:14:25.581Z,12.30
2018-09-24T17:19:34.474Z,12.10
2018-09-24T17:24:43.370Z,12.70
2018-09-24T17:29:52.667Z,12.20
2018-09-24T17:35:01.547Z,11.80
2018-09-24T17:40:10.499Z,11.70
2018-09-24T17:45:19.238Z,11.60
2018-09-24T17:50:27.977Z,12.40
2018-09-24T17:55:37.938Z,13.10
2018-09-24T18:00:47.034Z,13.60
2018-09-24T18:05:56.338Z,13.70
2018-09-24T18:11:07.357Z,13.80
2018-09-24T18:16:18.460Z,13.50
2018-09-24T18:21:29.395Z,12.70
2018-09-24T18:26:39.404Z,12.10
2018-09-24T18:31:49.350Z,11.50
2018-09-24T18:36:59.482Z,11.30
2018-09-24T18:42:09.343Z,11.00
2018-09-24T18:47:20.345Z,10.80
2018-09-24T18:52:30.278Z,10.60
2018-09-24T18:57:39.216Z,10.40
2018-09-24T19:02:48.255Z,10.10
2018-09-24T19:07:59.038Z,10.00
2018-09-24T19:13:08.003Z,10.00
2018-09-24T19:18:16.980Z,10.00
2018-09-24T19:23:30.735Z,9.90
2018-09-24T19:28:43.846Z,9.80
2018-09-24T19:33:52.707Z,9.70
2018-09-24T19:39:02.694Z,9.60
2018-09-24T19:44:11.850Z,9.40
2018-09-24T19:49:20.767Z,9.30
2018-09-24T19:54:30.696Z,9.20
2018-09-24T19:59:39.614Z,9.10
2018-09-24T20:04:48.554Z,9.00
2018-09-24T20:09:58.046Z,9.10
2018-09-24T20:15:09.176Z,9.00
2018-09-24T20:20:20.136Z,9.00
2018-09-24T20:25:29.121Z,9.20
2018-09-24T20:30:43.658Z,9.10
2018-09-24T20:35:52.511Z,8.90
2018-09-24T20:41:01.271Z,9.00
2018-09-24T20:46:10.515Z,9.10
2018-09-24T20:51:20.371Z,9.30
2018-09-24T20:56:29.240Z,9.60
2018-09-24T21:01:39.220Z,9.60
2018-09-24T21:06:48.853Z,9.40
2018-09-24T21:11:57.793Z,9.40
2018-09-24T21:17:06.795Z,9.20
2018-09-24T21:22:15.814Z,9.20
2018-09-24T21:27:24.576Z,9.20
2018-09-24T21:32:33.524Z,9.10
2018-09-24T21:37:42.283Z,9.30
2018-09-24T21:42:51.139Z,9.20
2018-09-24T21:48:00.146Z,9.00
2018-09-24T21:53:08.979Z,8.90
2018-09-24T21:58:22.717Z,8.60
2018-09-24T22:03:31.554Z,8.50
2018-09-24T22:08:40.570Z,8.30
2018-09-24T22:13:50.239Z,8.20
2018-09-24T22:18:59.213Z,8.20
2018-09-24T22:24:07.926Z,8.10
2018-09-24T22:29:16.806Z,8.10
2018-09-24T22:34:25.615Z,8.00
2018-09-24T22:39:34.444Z,7.90
2018-09-24T22:44:43.351Z,7.80
2018-09-24T22:49:52.271Z,7.80
2018-09-24T22:55:01.061Z,7.80
2018-09-24T23:00:10.376Z,7.70
2018-09-24T23:05:19.281Z,7.60
2018-09-24T23:10:28.259Z,7.40
2018-09-24T23:15:37.903Z,7.20
2018-09-24T23:20:46.742Z,7.20
2018-09-24T23:25:55.514Z,7.10
2018-09-24T23:31:04.487Z,7.20
2018-09-24T23:36:13.383Z,7.10
2018-09-24T23:41:22.599Z,7.10
2018-09-24T23:46:31.426Z,7.00
2018-09-24T23:51:40.197Z,7.00
2018-09-24T23:56:49.248Z,7.10
